sensor_id;sensor_type;location;lat;lon;timestamp;P1;durP1;ratioP1;P2;durP2;ratioP2
14722;SDS011;7452;55.594;12.986;2022-07-23T00:00:31;6.90;;;3.13;;
14722;SDS011;7452;55.594;12.986;2022-07-23T00:02:58;7.00;;;3.17;;
14722;SDS011;7452;55.594;12.986;2022-07-23T00:05:25;7.07;;;3.13;;
14722;SDS011;7452;55.594;12.986;2022-07-23T00:07:53;8.23;;;2.70;;
14722;SDS011;7452;55.594;12.986;2022-07-23T00:10:20;8.53;;;3.10;;
14722;SDS011;7452;55.594;12.986;2022-07-23T00:12:47;12.70;;;3.03;;
14722;SDS011;7452;55.594;12.986;2022-07-23T00:15:14;6.83;;;2.70;;
14722;SDS011;7452;55.594;12.986;2022-07-23T00:17:41;8.07;;;2.93;;
14722;SDS011;7452;55.594;12.986;2022-07-23T00:20:08;6.87;;;2.93;;
14722;SDS011;7452;55.594;12.986;2022-07-23T00:22:35;7.47;;;3.30;;
14722;SDS011;7452;55.594;12.986;2022-07-23T00:25:04;13.67;;;3.10;;
14722;SDS011;7452;55.594;12.986;2022-07-23T00:27:31;8.23;;;3.37;;
14722;SDS011;7452;55.594;12.986;2022-07-23T00:29:58;8.20;;;3.40;;
14722;SDS011;7452;55.594;12.986;2022-07-23T00:32:25;9.20;;;3.17;;
14722;SDS011;7452;55.594;12.986;2022-07-23T00:34:52;8.90;;;3.10;;
14722;SDS011;7452;55.594;12.986;2022-07-23T00:37:19;9.67;;;3.40;;
14722;SDS011;7452;55.594;12.986;2022-07-23T00:39:46;7.03;;;3.20;;
14722;SDS011;7452;55.594;12.986;2022-07-23T00:42:14;9.73;;;3.03;;
14722;SDS011;7452;55.594;12.986;2022-07-23T00:44:41;8.93;;;3.20;;
14722;SDS011;7452;55.594;12.986;2022-07-23T00:47:08;9.63;;;2.80;;
14722;SDS011;7452;55.594;12.986;2022-07-23T00:49:35;14.07;;;3.23;;
14722;SDS011;7452;55.594;12.986;2022-07-23T00:52:02;7.03;;;3.00;;
14722;SDS011;7452;55.594;12.986;2022-07-23T00:54:31;7.30;;;3.00;;
14722;SDS011;7452;55.594;12.986;2022-07-23T00:56:58;9.23;;;3.10;;
14722;SDS011;7452;55.594;12.986;2022-07-23T00:59:27;6.77;;;2.90;;
14722;SDS011;7452;55.594;12.986;2022-07-23T01:01:54;9.23;;;3.00;;
14722;SDS011;7452;55.594;12.986;2022-07-23T01:04:21;10.23;;;3.30;;
14722;SDS011;7452;55.594;12.986;2022-07-23T01:06:47;8.33;;;3.10;;
14722;SDS011;7452;55.594;12.986;2022-07-23T01:09:14;7.43;;;3.40;;
14722;SDS011;7452;55.594;12.986;2022-07-23T01:11:41;7.63;;;2.80;;
14722;SDS011;7452;55.594;12.986;2022-07-23T01:14:10;7.67;;;2.80;;
14722;SDS011;7452;55.594;12.986;2022-07-23T01:16:39;9.17;;;2.90;;
14722;SDS011;7452;55.594;12.986;2022-07-23T01:19:06;6.53;;;2.63;;
14722;SDS011;7452;55.594;12.986;2022-07-23T01:21:37;5.43;;;2.60;;
14722;SDS011;7452;55.594;12.986;2022-07-23T01:24:07;10.30;;;2.83;;
14722;SDS011;7452;55.594;12.986;2022-07-23T01:26:36;7.40;;;3.00;;
14722;SDS011;7452;55.594;12.986;2022-07-23T01:29:03;9.13;;;2.90;;
14722;SDS011;7452;55.594;12.986;2022-07-23T01:31:31;6.80;;;2.93;;
14722;SDS011;7452;55.594;12.986;2022-07-23T01:33:58;6.60;;;2.80;;
14722;SDS011;7452;55.594;12.986;2022-07-23T01:36:25;8.13;;;2.37;;
14722;SDS011;7452;55.594;12.986;2022-07-23T01:38:53;4.87;;;2.40;;
14722;SDS011;7452;55.594;12.986;2022-07-23T01:41:21;7.50;;;2.73;;
14722;SDS011;7452;55.594;12.986;2022-07-23T01:43:48;7.83;;;2.63;;
14722;SDS011;7452;55.594;12.986;2022-07-23T01:46:15;5.27;;;2.57;;
14722;SDS011;7452;55.594;12.986;2022-07-23T01:48:42;7.37;;;2.80;;
14722;SDS011;7452;55.594;12.986;2022-07-23T01:51:09;6.40;;;3.10;;
14722;SDS011;7452;55.594;12.986;2022-07-23T01:53:36;5.67;;;2.50;;
14722;SDS011;7452;55.594;12.986;2022-07-23T01:56:04;5.10;;;2.27;;
14722;SDS011;7452;55.594;12.986;2022-07-23T01:58:32;6.10;;;2.70;;
14722;SDS011;7452;55.594;12.986;2022-07-23T02:00:59;7.93;;;2.80;;
14722;SDS011;7452;55.594;12.986;2022-07-23T02:03:26;5.87;;;2.80;;
14722;SDS011;7452;55.594;12.986;2022-07-23T02:05:53;6.57;;;2.60;;
14722;SDS011;7452;55.594;12.986;2022-07-23T02:08:20;6.67;;;2.47;;
14722;SDS011;7452;55.594;12.986;2022-07-23T02:10:47;6.43;;;2.97;;
14722;SDS011;7452;55.594;12.986;2022-07-23T02:13:16;6.83;;;2.60;;
14722;SDS011;7452;55.594;12.986;2022-07-23T02:15:44;7.20;;;3.10;;
14722;SDS011;7452;55.594;12.986;2022-07-23T02:18:12;10.80;;;3.27;;
14722;SDS011;7452;55.594;12.986;2022-07-23T02:20:39;6.53;;;2.87;;
14722;SDS011;7452;55.594;12.986;2022-07-23T02:23:05;7.60;;;2.83;;
14722;SDS011;7452;55.594;12.986;2022-07-23T02:25:33;8.90;;;3.00;;
14722;SDS011;7452;55.594;12.986;2022-07-23T02:28:00;10.83;;;3.30;;
14722;SDS011;7452;55.594;12.986;2022-07-23T02:30:27;8.53;;;3.80;;
14722;SDS011;7452;55.594;12.986;2022-07-23T02:32:55;11.70;;;3.40;;
14722;SDS011;7452;55.594;12.986;2022-07-23T02:35:23;8.50;;;3.77;;
14722;SDS011;7452;55.594;12.986;2022-07-23T02:37:50;9.27;;;3.60;;
14722;SDS011;7452;55.594;12.986;2022-07-23T02:40:17;8.50;;;3.60;;
14722;SDS011;7452;55.594;12.986;2022-07-23T02:42:44;10.07;;;3.37;;
14722;SDS011;7452;55.594;12.986;2022-07-23T02:45:11;8.93;;;3.67;;
14722;SDS011;7452;55.594;12.986;2022-07-23T02:47:38;9.07;;;3.87;;
14722;SDS011;7452;55.594;12.986;2022-07-23T02:50:07;11.77;;;3.90;;
14722;SDS011;7452;55.594;12.986;2022-07-23T02:52:34;9.07;;;3.53;;
14722;SDS011;7452;55.594;12.986;2022-07-23T02:55:01;5.83;;;3.93;;
14722;SDS011;7452;55.594;12.986;2022-07-23T02:57:28;8.57;;;4.00;;
14722;SDS011;7452;55.594;12.986;2022-07-23T02:59:56;10.93;;;3.97;;
14722;SDS011;7452;55.594;12.986;2022-07-23T03:02:23;9.00;;;3.70;;
14722;SDS011;7452;55.594;12.986;2022-07-23T03:04:50;8.90;;;3.67;;
14722;SDS011;7452;55.594;12.986;2022-07-23T03:07:18;8.40;;;3.80;;
14722;SDS011;7452;55.594;12.986;2022-07-23T03:09:45;12.10;;;3.60;;
14722;SDS011;7452;55.594;12.986;2022-07-23T03:12:12;8.23;;;3.97;;
14722;SDS011;7452;55.594;12.986;2022-07-23T03:14:39;6.83;;;4.03;;
14722;SDS011;7452;55.594;12.986;2022-07-23T03:17:07;9.63;;;3.63;;
14722;SDS011;7452;55.594;12.986;2022-07-23T03:19:34;10.73;;;3.80;;
14722;SDS011;7452;55.594;12.986;2022-07-23T03:22:01;10.33;;;3.90;;
14722;SDS011;7452;55.594;12.986;2022-07-23T03:24:30;10.60;;;3.77;;
14722;SDS011;7452;55.594;12.986;2022-07-23T03:27:11;10.17;;;3.77;;
14722;SDS011;7452;55.594;12.986;2022-07-23T03:29:37;8.00;;;3.57;;
14722;SDS011;7452;55.594;12.986;2022-07-23T03:32:04;7.27;;;3.30;;
14722;SDS011;7452;55.594;12.986;2022-07-23T03:34:32;9.23;;;3.80;;
14722;SDS011;7452;55.594;12.986;2022-07-23T03:36:58;8.30;;;3.70;;
14722;SDS011;7452;55.594;12.986;2022-07-23T03:39:25;6.80;;;3.60;;
14722;SDS011;7452;55.594;12.986;2022-07-23T03:41:54;7.50;;;3.43;;
14722;SDS011;7452;55.594;12.986;2022-07-23T03:44:21;10.57;;;4.03;;
14722;SDS011;7452;55.594;12.986;2022-07-23T03:46:47;9.27;;;4.03;;
14722;SDS011;7452;55.594;12.986;2022-07-23T03:49:14;9.23;;;4.13;;
14722;SDS011;7452;55.594;12.986;2022-07-23T03:51:42;9.63;;;3.70;;
14722;SDS011;7452;55.594;12.986;2022-07-23T03:54:09;11.57;;;4.00;;
14722;SDS011;7452;55.594;12.986;2022-07-23T03:56:36;8.00;;;4.30;;
14722;SDS011;7452;55.594;12.986;2022-07-23T03:59:04;9.67;;;4.73;;
14722;SDS011;7452;55.594;12.986;2022-07-23T04:01:31;7.13;;;4.17;;
14722;SDS011;7452;55.594;12.986;2022-07-23T04:03:58;8.50;;;4.87;;
14722;SDS011;7452;55.594;12.986;2022-07-23T04:06:25;15.37;;;4.30;;
14722;SDS011;7452;55.594;12.986;2022-07-23T04:08:52;7.87;;;4.13;;
14722;SDS011;7452;55.594;12.986;2022-07-23T04:11:19;8.57;;;4.40;;
14722;SDS011;7452;55.594;12.986;2022-07-23T04:13:46;10.37;;;4.67;;
14722;SDS011;7452;55.594;12.986;2022-07-23T04:16:15;8.13;;;4.40;;
14722;SDS011;7452;55.594;12.986;2022-07-23T04:18:41;6.37;;;4.57;;
14722;SDS011;7452;55.594;12.986;2022-07-23T04:21:08;11.43;;;4.73;;
14722;SDS011;7452;55.594;12.986;2022-07-23T04:23:35;8.57;;;4.80;;
14722;SDS011;7452;55.594;12.986;2022-07-23T04:26:02;10.60;;;4.90;;
14722;SDS011;7452;55.594;12.986;2022-07-23T04:28:29;7.10;;;4.20;;
14722;SDS011;7452;55.594;12.986;2022-07-23T04:30:56;6.30;;;3.93;;
14722;SDS011;7452;55.594;12.986;2022-07-23T04:33:25;10.93;;;4.47;;
14722;SDS011;7452;55.594;12.986;2022-07-23T04:35:52;5.73;;;4.07;;
14722;SDS011;7452;55.594;12.986;2022-07-23T04:38:19;10.63;;;5.17;;
14722;SDS011;7452;55.594;12.986;2022-07-23T04:40:46;7.57;;;3.80;;
14722;SDS011;7452;55.594;12.986;2022-07-23T04:43:13;9.13;;;5.20;;
14722;SDS011;7452;55.594;12.986;2022-07-23T04:45:40;6.00;;;4.67;;
14722;SDS011;7452;55.594;12.986;2022-07-23T04:48:07;8.60;;;4.80;;
14722;SDS011;7452;55.594;12.986;2022-07-23T04:50:36;8.87;;;4.73;;
14722;SDS011;7452;55.594;12.986;2022-07-23T04:53:02;8.33;;;5.03;;
14722;SDS011;7452;55.594;12.986;2022-07-23T04:55:29;10.57;;;4.57;;
14722;SDS011;7452;55.594;12.986;2022-07-23T04:57:56;5.83;;;4.50;;
14722;SDS011;7452;55.594;12.986;2022-07-23T05:00:23;8.50;;;4.63;;
14722;SDS011;7452;55.594;12.986;2022-07-23T05:02:50;9.77;;;5.07;;
14722;SDS011;7452;55.594;12.986;2022-07-23T05:05:17;8.13;;;4.77;;
14722;SDS011;7452;55.594;12.986;2022-07-23T05:07:46;9.17;;;4.57;;
14722;SDS011;7452;55.594;12.986;2022-07-23T05:10:12;5.93;;;4.60;;
14722;SDS011;7452;55.594;12.986;2022-07-23T05:12:39;7.07;;;4.10;;
14722;SDS011;7452;55.594;12.986;2022-07-23T05:15:06;8.33;;;4.50;;
14722;SDS011;7452;55.594;12.986;2022-07-23T05:17:34;5.53;;;4.77;;
14722;SDS011;7452;55.594;12.986;2022-07-23T05:20:01;8.50;;;4.73;;
14722;SDS011;7452;55.594;12.986;2022-07-23T05:22:28;8.33;;;4.40;;
14722;SDS011;7452;55.594;12.986;2022-07-23T05:24:56;7.17;;;4.20;;
14722;SDS011;7452;55.594;12.986;2022-07-23T05:27:23;8.97;;;4.83;;
14722;SDS011;7452;55.594;12.986;2022-07-23T05:29:50;10.57;;;5.00;;
14722;SDS011;7452;55.594;12.986;2022-07-23T05:32:17;8.37;;;4.50;;
14722;SDS011;7452;55.594;12.986;2022-07-23T05:34:44;6.77;;;4.80;;
14722;SDS011;7452;55.594;12.986;2022-07-23T05:37:11;6.40;;;4.27;;
14722;SDS011;7452;55.594;12.986;2022-07-23T05:39:38;5.97;;;3.87;;
14722;SDS011;7452;55.594;12.986;2022-07-23T05:42:07;7.60;;;4.17;;
14722;SDS011;7452;55.594;12.986;2022-07-23T05:44:34;7.60;;;4.10;;
14722;SDS011;7452;55.594;12.986;2022-07-23T05:47:01;7.37;;;3.73;;
14722;SDS011;7452;55.594;12.986;2022-07-23T05:49:28;7.83;;;4.50;;
14722;SDS011;7452;55.594;12.986;2022-07-23T05:51:55;6.73;;;4.03;;
14722;SDS011;7452;55.594;12.986;2022-07-23T05:54:22;5.73;;;4.03;;
14722;SDS011;7452;55.594;12.986;2022-07-23T05:56:49;5.50;;;4.00;;
14722;SDS011;7452;55.594;12.986;2022-07-23T05:59:19;6.17;;;3.80;;
14722;SDS011;7452;55.594;12.986;2022-07-23T06:01:46;7.53;;;3.87;;
14722;SDS011;7452;55.594;12.986;2022-07-23T06:04:12;7.40;;;3.50;;
14722;SDS011;7452;55.594;12.986;2022-07-23T06:06:39;8.63;;;4.40;;
14722;SDS011;7452;55.594;12.986;2022-07-23T06:09:06;8.30;;;5.10;;
14722;SDS011;7452;55.594;12.986;2022-07-23T06:11:35;7.83;;;4.90;;
14722;SDS011;7452;55.594;12.986;2022-07-23T06:14:02;7.50;;;4.80;;
14722;SDS011;7452;55.594;12.986;2022-07-23T06:16:30;6.90;;;4.50;;
14722;SDS011;7452;55.594;12.986;2022-07-23T06:18:57;7.30;;;4.50;;
14722;SDS011;7452;55.594;12.986;2022-07-23T06:21:24;9.20;;;4.80;;
14722;SDS011;7452;55.594;12.986;2022-07-23T06:23:51;12.80;;;5.13;;
14722;SDS011;7452;55.594;12.986;2022-07-23T06:26:18;8.80;;;4.90;;
14722;SDS011;7452;55.594;12.986;2022-07-23T06:28:45;7.37;;;4.83;;
14722;SDS011;7452;55.594;12.986;2022-07-23T06:31:12;6.93;;;4.83;;
14722;SDS011;7452;55.594;12.986;2022-07-23T06:33:40;6.13;;;4.53;;
14722;SDS011;7452;55.594;12.986;2022-07-23T06:36:07;6.37;;;4.63;;
14722;SDS011;7452;55.594;12.986;2022-07-23T06:38:34;6.33;;;4.53;;
14722;SDS011;7452;55.594;12.986;2022-07-23T06:41:01;6.93;;;4.10;;
14722;SDS011;7452;55.594;12.986;2022-07-23T06:43:29;6.47;;;4.57;;
14722;SDS011;7452;55.594;12.986;2022-07-23T06:45:57;7.30;;;4.50;;
14722;SDS011;7452;55.594;12.986;2022-07-23T06:48:24;6.03;;;4.13;;
14722;SDS011;7452;55.594;12.986;2022-07-23T06:50:52;5.43;;;3.90;;
14722;SDS011;7452;55.594;12.986;2022-07-23T06:53:19;4.47;;;3.87;;
14722;SDS011;7452;55.594;12.986;2022-07-23T06:55:46;7.40;;;3.77;;
14722;SDS011;7452;55.594;12.986;2022-07-23T06:58:13;4.07;;;3.47;;
14722;SDS011;7452;55.594;12.986;2022-07-23T07:00:40;5.67;;;3.80;;
14722;SDS011;7452;55.594;12.986;2022-07-23T07:03:07;5.17;;;3.40;;
14722;SDS011;7452;55.594;12.986;2022-07-23T07:05:34;6.67;;;3.40;;
14722;SDS011;7452;55.594;12.986;2022-07-23T07:08:03;5.83;;;3.27;;
14722;SDS011;7452;55.594;12.986;2022-07-23T07:10:30;8.07;;;3.23;;
14722;SDS011;7452;55.594;12.986;2022-07-23T07:12:57;5.97;;;3.33;;
14722;SDS011;7452;55.594;12.986;2022-07-23T07:15:24;5.87;;;3.40;;
14722;SDS011;7452;55.594;12.986;2022-07-23T07:17:51;6.77;;;3.80;;
14722;SDS011;7452;55.594;12.986;2022-07-23T07:20:18;7.97;;;4.13;;
14722;SDS011;7452;55.594;12.986;2022-07-23T07:22:45;7.17;;;4.10;;
14722;SDS011;7452;55.594;12.986;2022-07-23T07:25:14;4.87;;;4.37;;
14722;SDS011;7452;55.594;12.986;2022-07-23T07:27:41;8.03;;;5.07;;
14722;SDS011;7452;55.594;12.986;2022-07-23T07:30:09;6.37;;;3.80;;
14722;SDS011;7452;55.594;12.986;2022-07-23T07:32:37;12.17;;;4.20;;
14722;SDS011;7452;55.594;12.986;2022-07-23T07:35:05;11.53;;;4.70;;
14722;SDS011;7452;55.594;12.986;2022-07-23T07:37:32;8.23;;;3.97;;
14722;SDS011;7452;55.594;12.986;2022-07-23T07:39:59;7.47;;;4.20;;
14722;SDS011;7452;55.594;12.986;2022-07-23T07:42:27;8.63;;;4.37;;
14722;SDS011;7452;55.594;12.986;2022-07-23T07:44:55;7.80;;;4.10;;
14722;SDS011;7452;55.594;12.986;2022-07-23T07:47:22;6.93;;;4.00;;
14722;SDS011;7452;55.594;12.986;2022-07-23T07:49:49;8.70;;;3.97;;
14722;SDS011;7452;55.594;12.986;2022-07-23T07:52:16;7.77;;;3.67;;
14722;SDS011;7452;55.594;12.986;2022-07-23T07:54:43;6.13;;;3.60;;
14722;SDS011;7452;55.594;12.986;2022-07-23T07:57:09;9.60;;;3.60;;
14722;SDS011;7452;55.594;12.986;2022-07-23T07:59:38;5.87;;;3.10;;
14722;SDS011;7452;55.594;12.986;2022-07-23T08:02:05;5.53;;;3.07;;
14722;SDS011;7452;55.594;12.986;2022-07-23T08:04:32;5.30;;;3.23;;
14722;SDS011;7452;55.594;12.986;2022-07-23T08:06:59;3.27;;;2.73;;
14722;SDS011;7452;55.594;12.986;2022-07-23T08:09:26;4.73;;;2.50;;
14722;SDS011;7452;55.594;12.986;2022-07-23T08:11:53;4.07;;;2.53;;
14722;SDS011;7452;55.594;12.986;2022-07-23T08:14:20;3.17;;;2.33;;
14722;SDS011;7452;55.594;12.986;2022-07-23T08:16:49;6.80;;;2.47;;
14722;SDS011;7452;55.594;12.986;2022-07-23T08:19:15;4.23;;;2.47;;
14722;SDS011;7452;55.594;12.986;2022-07-23T08:21:42;5.17;;;2.50;;
14722;SDS011;7452;55.594;12.986;2022-07-23T08:24:09;3.77;;;2.30;;
14722;SDS011;7452;55.594;12.986;2022-07-23T08:26:36;4.13;;;2.33;;
14722;SDS011;7452;55.594;12.986;2022-07-23T08:29:03;6.77;;;2.40;;
14722;SDS011;7452;55.594;12.986;2022-07-23T08:31:30;4.60;;;2.17;;
14722;SDS011;7452;55.594;12.986;2022-07-23T08:33:59;4.30;;;2.23;;
14722;SDS011;7452;55.594;12.986;2022-07-23T08:36:27;4.03;;;2.23;;
14722;SDS011;7452;55.594;12.986;2022-07-23T08:38:57;3.83;;;2.30;;
14722;SDS011;7452;55.594;12.986;2022-07-23T08:41:24;7.33;;;2.60;;
14722;SDS011;7452;55.594;12.986;2022-07-23T08:43:51;3.50;;;2.37;;
14722;SDS011;7452;55.594;12.986;2022-07-23T08:46:19;4.80;;;2.30;;
14722;SDS011;7452;55.594;12.986;2022-07-23T08:48:47;4.40;;;2.30;;
14722;SDS011;7452;55.594;12.986;2022-07-23T08:51:16;4.00;;;2.20;;
14722;SDS011;7452;55.594;12.986;2022-07-23T08:53:44;3.43;;;2.10;;
14722;SDS011;7452;55.594;12.986;2022-07-23T08:56:11;4.17;;;2.23;;
14722;SDS011;7452;55.594;12.986;2022-07-23T08:58:38;7.43;;;2.37;;
14722;SDS011;7452;55.594;12.986;2022-07-23T09:01:05;4.97;;;2.00;;
14722;SDS011;7452;55.594;12.986;2022-07-23T09:03:33;4.43;;;2.43;;
14722;SDS011;7452;55.594;12.986;2022-07-23T09:06:01;8.20;;;5.00;;
14722;SDS011;7452;55.594;12.986;2022-07-23T09:08:35;2.30;;;2.10;;
14722;SDS011;7452;55.594;12.986;2022-07-23T09:11:04;3.50;;;2.00;;
14722;SDS011;7452;55.594;12.986;2022-07-23T09:13:34;3.50;;;2.10;;
14722;SDS011;7452;55.594;12.986;2022-07-23T09:16:05;3.17;;;2.00;;
14722;SDS011;7452;55.594;12.986;2022-07-23T09:18:34;3.57;;;1.80;;
14722;SDS011;7452;55.594;12.986;2022-07-23T09:21:10;3.00;;;1.87;;
14722;SDS011;7452;55.594;12.986;2022-07-23T09:23:44;3.57;;;1.80;;
14722;SDS011;7452;55.594;12.986;2022-07-23T09:26:19;3.60;;;1.70;;
14722;SDS011;7452;55.594;12.986;2022-07-23T09:28:55;3.83;;;1.80;;
14722;SDS011;7452;55.594;12.986;2022-07-23T09:31:24;2.93;;;1.60;;
14722;SDS011;7452;55.594;12.986;2022-07-23T09:34:05;2.73;;;1.60;;
14722;SDS011;7452;55.594;12.986;2022-07-23T09:36:37;5.70;;;1.40;;
14722;SDS011;7452;55.594;12.986;2022-07-23T09:39:06;2.03;;;1.40;;
14722;SDS011;7452;55.594;12.986;2022-07-23T09:41:34;3.17;;;1.43;;
14722;SDS011;7452;55.594;12.986;2022-07-23T09:44:12;1.80;;;1.50;;
14722;SDS011;7452;55.594;12.986;2022-07-23T09:46:41;2.20;;;1.37;;
14722;SDS011;7452;55.594;12.986;2022-07-23T09:49:10;1.30;;;1.20;;
14722;SDS011;7452;55.594;12.986;2022-07-23T09:51:46;2.37;;;1.20;;
14722;SDS011;7452;55.594;12.986;2022-07-23T09:54:38;2.00;;;1.60;;
14722;SDS011;7452;55.594;12.986;2022-07-23T09:57:06;1.23;;;1.03;;
14722;SDS011;7452;55.594;12.986;2022-07-23T09:59:36;1.30;;;1.20;;
14722;SDS011;7452;55.594;12.986;2022-07-23T10:02:05;1.60;;;1.03;;
14722;SDS011;7452;55.594;12.986;2022-07-23T10:04:33;1.73;;;1.20;;
14722;SDS011;7452;55.594;12.986;2022-07-23T10:07:02;2.03;;;1.33;;
14722;SDS011;7452;55.594;12.986;2022-07-23T10:09:32;1.53;;;1.10;;
14722;SDS011;7452;55.594;12.986;2022-07-23T10:12:00;2.07;;;1.20;;
14722;SDS011;7452;55.594;12.986;2022-07-23T10:14:44;1.83;;;1.20;;
14722;SDS011;7452;55.594;12.986;2022-07-23T10:17:12;1.37;;;1.20;;
14722;SDS011;7452;55.594;12.986;2022-07-23T10:19:40;2.83;;;1.67;;
14722;SDS011;7452;55.594;12.986;2022-07-23T10:22:08;1.80;;;1.23;;
14722;SDS011;7452;55.594;12.986;2022-07-23T10:24:45;1.37;;;1.27;;
14722;SDS011;7452;55.594;12.986;2022-07-23T10:27:24;1.63;;;1.33;;
14722;SDS011;7452;55.594;12.986;2022-07-23T10:30:15;2.70;;;2.10;;
14722;SDS011;7452;55.594;12.986;2022-07-23T10:32:49;1.37;;;1.27;;
14722;SDS011;7452;55.594;12.986;2022-07-23T10:35:26;2.07;;;1.33;;
14722;SDS011;7452;55.594;12.986;2022-07-23T10:38:01;1.50;;;1.40;;
14722;SDS011;7452;55.594;12.986;2022-07-23T10:40:35;1.40;;;1.30;;
14722;SDS011;7452;55.594;12.986;2022-07-23T10:43:02;1.53;;;1.23;;
14722;SDS011;7452;55.594;12.986;2022-07-23T10:45:41;2.57;;;1.40;;
14722;SDS011;7452;55.594;12.986;2022-07-23T10:48:12;2.73;;;1.50;;
14722;SDS011;7452;55.594;12.986;2022-07-23T10:50:41;2.53;;;1.30;;
14722;SDS011;7452;55.594;12.986;2022-07-23T10:53:12;2.40;;;1.20;;
14722;SDS011;7452;55.594;12.986;2022-07-23T10:55:44;1.53;;;1.43;;
14722;SDS011;7452;55.594;12.986;2022-07-23T10:58:19;1.60;;;1.43;;
14722;SDS011;7452;55.594;12.986;2022-07-23T11:00:48;2.43;;;1.40;;
14722;SDS011;7452;55.594;12.986;2022-07-23T11:03:28;2.67;;;1.47;;
14722;SDS011;7452;55.594;12.986;2022-07-23T11:06:01;1.57;;;1.27;;
14722;SDS011;7452;55.594;12.986;2022-07-23T11:08:29;2.67;;;1.40;;
14722;SDS011;7452;55.594;12.986;2022-07-23T11:11:09;1.90;;;1.40;;
14722;SDS011;7452;55.594;12.986;2022-07-23T11:13:38;1.50;;;1.40;;
14722;SDS011;7452;55.594;12.986;2022-07-23T11:16:17;3.10;;;1.77;;
14722;SDS011;7452;55.594;12.986;2022-07-23T11:19:02;1.97;;;1.77;;
14722;SDS011;7452;55.594;12.986;2022-07-23T11:21:43;2.47;;;1.60;;
14722;SDS011;7452;55.594;12.986;2022-07-23T11:24:13;2.77;;;1.77;;
14722;SDS011;7452;55.594;12.986;2022-07-23T11:26:46;2.63;;;1.70;;
14722;SDS011;7452;55.594;12.986;2022-07-23T11:29:38;2.00;;;1.83;;
14722;SDS011;7452;55.594;12.986;2022-07-23T11:32:06;2.03;;;1.83;;
14722;SDS011;7452;55.594;12.986;2022-07-23T11:34:35;2.97;;;2.10;;
14722;SDS011;7452;55.594;12.986;2022-07-23T11:37:06;2.87;;;2.27;;
14722;SDS011;7452;55.594;12.986;2022-07-23T11:39:34;2.53;;;1.80;;
14722;SDS011;7452;55.594;12.986;2022-07-23T11:42:04;4.30;;;2.43;;
14722;SDS011;7452;55.594;12.986;2022-07-23T11:44:33;2.40;;;1.83;;
14722;SDS011;7452;55.594;12.986;2022-07-23T11:47:02;1.63;;;1.40;;
14722;SDS011;7452;55.594;12.986;2022-07-23T11:49:31;2.80;;;2.03;;
14722;SDS011;7452;55.594;12.986;2022-07-23T11:52:04;2.80;;;1.83;;
14722;SDS011;7452;55.594;12.986;2022-07-23T11:54:33;2.03;;;1.70;;
14722;SDS011;7452;55.594;12.986;2022-07-23T11:57:02;2.23;;;1.60;;
14722;SDS011;7452;55.594;12.986;2022-07-23T11:59:30;2.97;;;1.60;;
14722;SDS011;7452;55.594;12.986;2022-07-23T12:01:59;3.23;;;1.83;;
14722;SDS011;7452;55.594;12.986;2022-07-23T12:04:36;1.87;;;1.43;;
14722;SDS011;7452;55.594;12.986;2022-07-23T12:07:04;3.80;;;2.40;;
14722;SDS011;7452;55.594;12.986;2022-07-23T12:09:46;1.93;;;1.20;;
14722;SDS011;7452;55.594;12.986;2022-07-23T12:12:15;3.23;;;2.17;;
14722;SDS011;7452;55.594;12.986;2022-07-23T12:14:47;1.53;;;1.30;;
14722;SDS011;7452;55.594;12.986;2022-07-23T12:17:14;1.70;;;1.07;;
14722;SDS011;7452;55.594;12.986;2022-07-23T12:19:41;1.27;;;1.17;;
14722;SDS011;7452;55.594;12.986;2022-07-23T12:22:08;1.63;;;1.20;;
14722;SDS011;7452;55.594;12.986;2022-07-23T12:27:26;1.37;;;0.80;;
14722;SDS011;7452;55.594;12.986;2022-07-23T12:29:53;1.63;;;0.80;;
14722;SDS011;7452;55.594;12.986;2022-07-23T12:32:21;1.90;;;1.10;;
14722;SDS011;7452;55.594;12.986;2022-07-23T12:34:50;1.07;;;0.80;;
14722;SDS011;7452;55.594;12.986;2022-07-23T12:37:28;0.97;;;0.80;;
14722;SDS011;7452;55.594;12.986;2022-07-23T12:39:56;1.37;;;0.90;;
14722;SDS011;7452;55.594;12.986;2022-07-23T12:42:23;1.23;;;0.90;;
14722;SDS011;7452;55.594;12.986;2022-07-23T12:45:08;1.40;;;1.00;;
14722;SDS011;7452;55.594;12.986;2022-07-23T12:47:57;1.13;;;0.93;;
14722;SDS011;7452;55.594;12.986;2022-07-23T12:50:33;4.10;;;1.00;;
14722;SDS011;7452;55.594;12.986;2022-07-23T12:53:05;1.43;;;1.10;;
14722;SDS011;7452;55.594;12.986;2022-07-23T12:55:33;4.17;;;2.37;;
14722;SDS011;7452;55.594;12.986;2022-07-23T12:58:08;4.13;;;2.63;;
14722;SDS011;7452;55.594;12.986;2022-07-23T13:00:55;3.23;;;1.30;;
14722;SDS011;7452;55.594;12.986;2022-07-23T13:03:34;1.83;;;1.40;;
14722;SDS011;7452;55.594;12.986;2022-07-23T13:06:04;1.47;;;1.30;;
14722;SDS011;7452;55.594;12.986;2022-07-23T13:08:33;2.67;;;1.07;;
14722;SDS011;7452;55.594;12.986;2022-07-23T13:11:02;1.00;;;0.90;;
14722;SDS011;7452;55.594;12.986;2022-07-23T13:13:30;1.33;;;1.17;;
14722;SDS011;7452;55.594;12.986;2022-07-23T13:16:00;1.83;;;1.00;;
14722;SDS011;7452;55.594;12.986;2022-07-23T13:18:30;1.47;;;1.20;;
14722;SDS011;7452;55.594;12.986;2022-07-23T13:20:57;1.70;;;1.07;;
14722;SDS011;7452;55.594;12.986;2022-07-23T13:23:25;2.00;;;1.60;;
14722;SDS011;7452;55.594;12.986;2022-07-23T13:25:52;3.17;;;1.00;;
14722;SDS011;7452;55.594;12.986;2022-07-23T13:28:19;1.47;;;1.37;;
14722;SDS011;7452;55.594;12.986;2022-07-23T13:30:49;1.80;;;0.87;;
14722;SDS011;7452;55.594;12.986;2022-07-23T13:33:18;1.00;;;0.80;;
14722;SDS011;7452;55.594;12.986;2022-07-23T13:35:47;2.30;;;1.03;;
14722;SDS011;7452;55.594;12.986;2022-07-23T13:38:15;1.80;;;1.00;;
14722;SDS011;7452;55.594;12.986;2022-07-23T13:40:43;1.63;;;0.70;;
14722;SDS011;7452;55.594;12.986;2022-07-23T13:43:12;1.13;;;0.90;;
14722;SDS011;7452;55.594;12.986;2022-07-23T13:45:40;1.87;;;1.20;;
14722;SDS011;7452;55.594;12.986;2022-07-23T13:48:08;1.90;;;1.20;;
14722;SDS011;7452;55.594;12.986;2022-07-23T13:50:39;1.27;;;1.17;;
14722;SDS011;7452;55.594;12.986;2022-07-23T13:53:08;1.07;;;1.00;;
14722;SDS011;7452;55.594;12.986;2022-07-23T13:55:36;2.50;;;1.50;;
14722;SDS011;7452;55.594;12.986;2022-07-23T13:58:05;2.03;;;1.10;;
14722;SDS011;7452;55.594;12.986;2022-07-23T14:00:33;2.33;;;1.40;;
14722;SDS011;7452;55.594;12.986;2022-07-23T14:03:01;2.83;;;1.60;;
14722;SDS011;7452;55.594;12.986;2022-07-23T14:05:29;1.43;;;1.30;;
14722;SDS011;7452;55.594;12.986;2022-07-23T14:07:57;1.70;;;1.60;;
14722;SDS011;7452;55.594;12.986;2022-07-23T14:10:25;3.40;;;2.90;;
14722;SDS011;7452;55.594;12.986;2022-07-23T14:12:52;2.03;;;1.70;;
14722;SDS011;7452;55.594;12.986;2022-07-23T14:15:21;1.60;;;1.50;;
14722;SDS011;7452;55.594;12.986;2022-07-23T14:17:49;2.17;;;1.57;;
14722;SDS011;7452;55.594;12.986;2022-07-23T14:20:16;1.97;;;1.50;;
14722;SDS011;7452;55.594;12.986;2022-07-23T14:22:43;2.23;;;1.60;;
14722;SDS011;7452;55.594;12.986;2022-07-23T14:25:12;2.87;;;1.60;;
14722;SDS011;7452;55.594;12.986;2022-07-23T14:27:39;2.07;;;1.80;;
14722;SDS011;7452;55.594;12.986;2022-07-23T14:30:07;2.17;;;1.70;;
14722;SDS011;7452;55.594;12.986;2022-07-23T14:32:35;2.50;;;1.60;;
14722;SDS011;7452;55.594;12.986;2022-07-23T14:35:02;2.03;;;1.30;;
14722;SDS011;7452;55.594;12.986;2022-07-23T14:37:31;2.00;;;1.47;;
14722;SDS011;7452;55.594;12.986;2022-07-23T14:39:58;3.60;;;1.27;;
14722;SDS011;7452;55.594;12.986;2022-07-23T14:42:26;4.00;;;1.50;;
14722;SDS011;7452;55.594;12.986;2022-07-23T14:44:54;3.07;;;1.40;;
14722;SDS011;7452;55.594;12.986;2022-07-23T14:47:20;3.00;;;1.47;;
14722;SDS011;7452;55.594;12.986;2022-07-23T14:49:48;2.57;;;1.30;;
14722;SDS011;7452;55.594;12.986;2022-07-23T14:52:15;1.90;;;1.40;;
14722;SDS011;7452;55.594;12.986;2022-07-23T14:54:41;1.27;;;1.17;;
14722;SDS011;7452;55.594;12.986;2022-07-23T14:57:08;2.80;;;1.83;;